createdAt,value
2022-12-28T00:02:13.160Z,2.62
2022-12-28T00:04:39.429Z,2.77
2022-12-28T00:07:05.679Z,2.86
2022-12-28T00:09:31.928Z,3.05
2022-12-28T00:11:58.174Z,3.06
2022-12-28T00:14:24.429Z,3.15
2022-12-28T00:16:50.680Z,3.37
2022-12-28T00:19:16.930Z,3.07
2022-12-28T00:21:43.215Z,3.43
2022-12-28T00:24:09.476Z,3.46
2022-12-28T00:26:35.739Z,3.37
2022-12-28T00:29:05.079Z,3.55
2022-12-28T00:31:31.998Z,3.73
2022-12-28T00:33:58.325Z,4.06
2022-12-28T00:36:24.568Z,3.97
2022-12-28T00:39:10.795Z,3.77
2022-12-28T00:41:37.057Z,4.11
2022-12-28T00:44:03.298Z,3.95
2022-12-28T00:46:29.544Z,3.76
2022-12-28T00:48:55.801Z,3.96
2022-12-28T00:51:22.061Z,3.74
2022-12-28T00:53:48.404Z,3.83
2022-12-28T00:56:14.673Z,3.81
2022-12-28T00:58:40.932Z,3.92
2022-12-28T01:01:07.298Z,4.21
2022-12-28T01:03:33.621Z,4.26
2022-12-28T01:05:59.881Z,4.15
2022-12-28T01:08:26.145Z,4.20
2022-12-28T01:10:52.383Z,4.29
2022-12-28T01:13:18.637Z,4.84
2022-12-28T01:15:44.894Z,4.63
2022-12-28T01:18:12.646Z,4.49
2022-12-28T01:20:39.078Z,4.42
2022-12-28T01:23:05.339Z,4.76
2022-12-28T01:25:31.596Z,4.63
2022-12-28T01:27:57.839Z,4.81
2022-12-28T01:30:24.114Z,5.01
2022-12-28T01:32:50.371Z,4.98
2022-12-28T01:35:16.636Z,5.14
2022-12-28T01:37:42.879Z,4.95
2022-12-28T01:40:09.122Z,5.08
2022-12-28T01:42:35.376Z,4.86
2022-12-28T01:45:01.653Z,5.02
2022-12-28T01:47:27.906Z,4.80
2022-12-28T01:49:54.159Z,4.99
2022-12-28T01:52:20.406Z,5.29
2022-12-28T01:54:46.664Z,5.39
2022-12-28T01:57:12.912Z,5.23
2022-12-28T01:59:39.177Z,5.38
2022-12-28T02:02:05.655Z,5.49
2022-12-28T02:04:32.035Z,5.16
2022-12-28T02:06:58.282Z,5.12
2022-12-28T02:09:24.560Z,5.36
2022-12-28T02:11:50.812Z,5.44
2022-12-28T02:14:17.078Z,5.29
2022-12-28T02:16:43.358Z,5.05
2022-12-28T02:19:09.694Z,5.57
2022-12-28T02:21:35.934Z,5.78
2022-12-28T02:24:02.181Z,5.65
2022-12-28T02:26:28.425Z,5.59
2022-12-28T02:28:54.665Z,5.62
2022-12-28T02:31:20.920Z,5.71
2022-12-28T02:33:47.188Z,5.53
2022-12-28T02:36:18.302Z,6.07
2022-12-28T02:38:45.112Z,5.73
2022-12-28T02:41:11.374Z,5.71
2022-12-28T02:43:37.613Z,5.96
2022-12-28T02:46:03.929Z,5.63
2022-12-28T02:48:30.258Z,5.76
2022-12-28T02:50:56.493Z,5.64
2022-12-28T02:53:22.732Z,5.75
2022-12-28T02:55:48.978Z,6.04
2022-12-28T02:58:15.228Z,5.89
2022-12-28T03:00:41.458Z,5.96
2022-12-28T03:03:07.735Z,6.08
2022-12-28T03:05:34.033Z,5.74
2022-12-28T03:08:00.304Z,5.99
2022-12-28T03:10:26.556Z,6.00
2022-12-28T03:12:52.819Z,6.19
2022-12-28T03:15:19.062Z,6.02
2022-12-28T03:17:45.344Z,6.42
2022-12-28T03:20:11.624Z,6.17
2022-12-28T03:22:37.885Z,6.46
2022-12-28T03:25:04.139Z,6.65
2022-12-28T03:27:30.533Z,6.35
2022-12-28T03:29:56.779Z,6.93
2022-12-28T03:32:23.034Z,7.29
2022-12-28T03:34:49.290Z,7.02
2022-12-28T03:37:15.522Z,6.46
2022-12-28T03:39:41.776Z,6.37
2022-12-28T03:42:08.014Z,6.21
2022-12-28T03:44:34.279Z,6.36
2022-12-28T03:47:00.527Z,6.17
2022-12-28T03:49:26.842Z,6.25
2022-12-28T03:51:53.111Z,6.91
2022-12-28T03:54:19.354Z,6.85
2022-12-28T03:56:45.593Z,7.13
2022-12-28T03:59:11.836Z,7.27
2022-12-28T04:01:38.136Z,6.63
2022-12-28T04:04:04.436Z,6.79
2022-12-28T04:06:30.697Z,7.04
2022-12-28T04:08:56.964Z,7.07
2022-12-28T04:11:23.202Z,7.18
2022-12-28T04:13:49.450Z,6.81
2022-12-28T04:16:15.741Z,6.88
2022-12-28T04:18:42.013Z,6.68
2022-12-28T04:21:08.268Z,6.96
2022-12-28T04:23:34.567Z,6.83
2022-12-28T04:26:00.829Z,6.83
2022-12-28T04:28:27.086Z,6.56
2022-12-28T04:30:53.363Z,6.16
2022-12-28T04:33:19.660Z,6.44
2022-12-28T04:35:45.913Z,6.09
2022-12-28T04:38:12.156Z,6.15
2022-12-28T04:40:38.407Z,6.46
2022-12-28T04:43:04.683Z,6.04
2022-12-28T04:45:30.943Z,6.30
2022-12-28T04:47:57.191Z,6.27
2022-12-28T04:50:23.450Z,6.40
2022-12-28T04:52:49.709Z,6.33
2022-12-28T04:55:31.967Z,6.33
2022-12-28T04:57:59.730Z,6.30
2022-12-28T05:00:26.043Z,6.37
2022-12-28T05:02:52.460Z,6.83
2022-12-28T05:05:18.735Z,7.07
2022-12-28T05:07:44.978Z,7.18
2022-12-28T05:10:11.222Z,7.17
2022-12-28T05:12:37.458Z,6.81
2022-12-28T05:15:03.707Z,7.15
2022-12-28T05:17:29.971Z,7.01
2022-12-28T05:19:57.265Z,6.98
2022-12-28T05:22:23.525Z,7.36
2022-12-28T05:24:49.787Z,7.60
2022-12-28T05:27:16.053Z,7.51
2022-12-28T05:29:42.298Z,7.35
2022-12-28T05:32:08.549Z,7.52
2022-12-28T05:34:34.818Z,7.77
2022-12-28T05:37:01.059Z,7.28
2022-12-28T05:39:27.317Z,7.91
2022-12-28T05:41:53.561Z,7.90
2022-12-28T05:44:19.823Z,8.09
2022-12-28T05:46:46.138Z,8.16
2022-12-28T05:49:12.441Z,7.78
2022-12-28T05:51:40.033Z,8.07
2022-12-28T05:54:06.563Z,8.33
2022-12-28T05:56:32.816Z,8.04
2022-12-28T05:58:59.078Z,8.00
2022-12-28T06:01:25.389Z,8.00
2022-12-28T06:03:51.702Z,7.68
2022-12-28T06:06:17.948Z,7.48
2022-12-28T06:08:44.186Z,7.59
2022-12-28T06:11:10.436Z,8.06
2022-12-28T06:13:36.717Z,8.39
2022-12-28T06:16:03.020Z,8.85
2022-12-28T06:18:29.338Z,8.74
2022-12-28T06:20:57.173Z,8.70
2022-12-28T06:23:23.513Z,8.39
2022-12-28T06:25:49.775Z,8.46
2022-12-28T06:28:16.021Z,8.12
2022-12-28T06:30:44.474Z,7.84
2022-12-28T06:33:13.837Z,8.24
2022-12-28T06:35:40.083Z,8.12
2022-12-28T06:38:06.339Z,7.49
2022-12-28T06:41:02.411Z,7.79
2022-12-28T06:43:18.812Z,7.50
2022-12-28T06:45:45.092Z,7.46
2022-12-28T06:48:11.364Z,7.39
2022-12-28T06:50:40.213Z,7.64
2022-12-28T06:53:06.643Z,7.90
2022-12-28T06:55:32.991Z,8.51
2022-12-28T06:57:59.266Z,8.65
2022-12-28T07:00:25.529Z,9.69
2022-12-28T07:02:51.791Z,9.19
2022-12-28T07:05:18.051Z,9.38
2022-12-28T07:07:44.320Z,10.27
2022-12-28T07:10:10.609Z,10.42
2022-12-28T07:12:36.869Z,11.02
2022-12-28T07:15:03.126Z,9.93
2022-12-28T07:17:29.370Z,9.50
2022-12-28T07:19:55.639Z,9.49
2022-12-28T07:22:21.909Z,9.32
2022-12-28T07:24:48.179Z,8.83
2022-12-28T07:27:14.425Z,9.16
2022-12-28T07:29:40.686Z,8.93
2022-12-28T07:32:06.945Z,9.00
2022-12-28T07:34:33.207Z,9.03
2022-12-28T07:36:59.548Z,8.99
2022-12-28T07:39:25.782Z,8.83
2022-12-28T07:41:52.032Z,8.71
2022-12-28T07:44:18.286Z,8.36
2022-12-28T07:46:44.520Z,8.64
2022-12-28T07:49:10.777Z,8.04
2022-12-28T07:51:37.127Z,8.32
2022-12-28T07:54:03.374Z,8.20
2022-12-28T07:56:29.610Z,8.20
2022-12-28T07:58:55.880Z,8.48
2022-12-28T08:01:22.205Z,8.65
2022-12-28T08:03:48.599Z,8.60
2022-12-28T08:06:14.879Z,9.54
2022-12-28T08:08:41.129Z,9.47
2022-12-28T08:11:07.402Z,9.21
2022-12-28T08:13:33.642Z,9.16
2022-12-28T08:15:59.938Z,8.80
2022-12-28T08:18:26.350Z,8.84
2022-12-28T08:20:52.591Z,8.51
2022-12-28T08:23:18.828Z,8.89
2022-12-28T08:25:45.087Z,8.85
2022-12-28T08:28:11.347Z,9.54
2022-12-28T08:30:38.622Z,9.34
2022-12-28T08:33:04.914Z,9.63
2022-12-28T08:35:31.164Z,9.57
2022-12-28T08:37:57.409Z,9.40
2022-12-28T08:40:23.652Z,9.40
2022-12-28T08:42:49.915Z,9.50
2022-12-28T08:45:16.157Z,9.54
2022-12-28T08:47:42.981Z,9.65
2022-12-28T08:50:12.030Z,9.25
2022-12-28T08:52:38.644Z,8.95
2022-12-28T08:55:04.888Z,9.03
2022-12-28T08:57:31.145Z,8.96
2022-12-28T08:59:57.418Z,8.36
2022-12-28T09:02:23.812Z,9.08
2022-12-28T09:04:50.148Z,8.56
2022-12-28T09:07:16.398Z,8.81
2022-12-28T09:09:42.676Z,8.44
2022-12-28T09:12:08.932Z,8.63
2022-12-28T09:14:35.166Z,8.52
2022-12-28T09:17:01.411Z,8.48
2022-12-28T09:19:27.661Z,8.64
2022-12-28T09:21:53.957Z,8.18
2022-12-28T09:24:20.240Z,7.97
2022-12-28T09:26:46.480Z,8.01
2022-12-28T09:29:12.728Z,7.68
2022-12-28T09:31:39.889Z,7.89
2022-12-28T09:36:52.417Z,7.49
2022-12-28T09:39:18.786Z,7.44
2022-12-28T09:41:45.152Z,7.66
2022-12-28T09:44:11.440Z,8.22
2022-12-28T09:46:37.820Z,7.39
2022-12-28T09:49:04.115Z,7.40
2022-12-28T09:51:30.367Z,7.36
2022-12-28T09:53:56.620Z,6.73
2022-12-28T09:56:22.888Z,6.88
2022-12-28T09:58:49.156Z,7.09
2022-12-28T10:01:15.506Z,6.98
2022-12-28T10:03:41.813Z,6.65
2022-12-28T10:06:08.080Z,6.08
2022-12-28T10:08:34.317Z,6.28
2022-12-28T10:11:00.562Z,5.80
2022-12-28T10:13:53.432Z,5.49
2022-12-28T10:16:13.042Z,5.27
2022-12-28T10:18:39.679Z,5.81
2022-12-28T10:21:06.006Z,5.72
2022-12-28T10:23:32.268Z,5.43
2022-12-28T10:25:58.519Z,5.18
2022-12-28T10:28:24.768Z,5.20
2022-12-28T10:30:51.024Z,4.77
2022-12-28T10:33:17.275Z,4.26
2022-12-28T10:35:43.620Z,4.26
2022-12-28T10:38:09.857Z,4.34
2022-12-28T10:40:36.107Z,4.27
2022-12-28T10:43:08.473Z,4.17
2022-12-28T10:45:36.918Z,4.06
2022-12-28T10:48:03.171Z,3.88
2022-12-28T10:50:37.717Z,4.06
2022-12-28T10:53:04.317Z,4.04
2022-12-28T10:55:31.692Z,4.10
2022-12-28T11:00:52.122Z,3.71
2022-12-28T11:03:18.701Z,3.65
2022-12-28T11:05:45.030Z,4.08
2022-12-28T11:08:11.269Z,3.78
2022-12-28T11:10:37.537Z,3.85
2022-12-28T11:13:03.828Z,3.91
2022-12-28T11:15:30.072Z,4.01
2022-12-28T11:17:56.313Z,4.22
2022-12-28T11:20:22.590Z,3.85
2022-12-28T11:22:48.858Z,3.64
2022-12-28T11:25:15.120Z,3.63
2022-12-28T11:27:41.378Z,3.53
2022-12-28T11:30:11.125Z,3.58
2022-12-28T11:32:43.313Z,3.44
2022-12-28T11:35:09.567Z,3.63
2022-12-28T11:37:35.806Z,3.74
2022-12-28T11:40:02.048Z,3.47
2022-12-28T11:42:39.130Z,3.66
2022-12-28T11:45:06.027Z,3.35
2022-12-28T11:47:32.259Z,3.29
2022-12-28T11:49:58.520Z,3.54
2022-12-28T11:52:24.765Z,3.01
2022-12-28T11:54:51.024Z,3.03
2022-12-28T11:57:17.261Z,2.97
2022-12-28T11:59:43.493Z,2.95
2022-12-28T12:02:09.770Z,2.65
2022-12-28T12:04:36.031Z,2.88
2022-12-28T12:07:02.284Z,2.64
2022-12-28T12:09:28.544Z,2.60
2022-12-28T12:11:54.788Z,2.49
2022-12-28T12:14:21.056Z,2.66
2022-12-28T12:16:47.381Z,2.59
2022-12-28T12:19:13.659Z,2.45
2022-12-28T12:21:39.979Z,2.29
2022-12-28T12:24:06.244Z,2.51
2022-12-28T12:26:32.495Z,2.24
2022-12-28T12:28:58.753Z,2.38
2022-12-28T12:31:26.043Z,2.40
2022-12-28T12:33:52.286Z,2.26
2022-12-28T12:36:18.530Z,2.28
2022-12-28T12:38:44.771Z,2.15
2022-12-28T12:41:11.038Z,2.21
2022-12-28T12:43:37.310Z,1.99
2022-12-28T12:46:03.630Z,1.88
2022-12-28T12:48:29.936Z,1.89
2022-12-28T12:50:56.196Z,2.08
2022-12-28T12:53:22.450Z,1.85
2022-12-28T12:55:48.719Z,1.86
2022-12-28T12:58:14.990Z,1.79
2022-12-28T13:00:47.044Z,1.88
2022-12-28T13:03:14.868Z,2.09
2022-12-28T13:05:41.141Z,1.90
2022-12-28T13:08:07.390Z,1.85
2022-12-28T13:10:33.646Z,1.93
2022-12-28T13:12:59.937Z,1.91
2022-12-28T13:15:26.175Z,2.01
2022-12-28T13:17:55.489Z,2.03
2022-12-28T13:20:21.816Z,1.88
2022-12-28T13:22:48.088Z,1.94
2022-12-28T13:25:14.349Z,2.00
2022-12-28T13:27:40.590Z,1.99
2022-12-28T13:30:06.838Z,2.02
2022-12-28T13:32:38.054Z,2.13
2022-12-28T13:35:04.941Z,1.86
2022-12-28T13:37:31.174Z,1.88
2022-12-28T13:39:57.504Z,1.99
2022-12-28T13:42:23.805Z,2.09
2022-12-28T13:44:50.077Z,1.79
2022-12-28T13:47:16.339Z,2.01
2022-12-28T13:49:42.608Z,1.85
2022-12-28T13:52:08.849Z,1.80
2022-12-28T13:54:35.128Z,1.87
2022-12-28T13:57:20.941Z,1.92
2022-12-28T13:59:47.704Z,1.86
2022-12-28T14:02:14.064Z,1.88
2022-12-28T14:04:55.796Z,1.82
2022-12-28T14:07:22.137Z,1.81
2022-12-28T14:09:48.381Z,1.77
2022-12-28T14:12:14.669Z,1.91
2022-12-28T14:14:40.907Z,1.95
2022-12-28T14:17:07.170Z,1.81
2022-12-28T14:19:33.434Z,1.82
2022-12-28T14:21:59.683Z,2.08
2022-12-28T14:24:25.936Z,2.08
2022-12-28T14:26:52.198Z,2.00
2022-12-28T14:29:18.458Z,2.09
2022-12-28T14:31:44.721Z,2.06
2022-12-28T14:34:10.999Z,2.16
2022-12-28T14:36:37.272Z,2.07
2022-12-28T14:39:05.219Z,2.04
2022-12-28T14:41:31.704Z,2.20
2022-12-28T14:43:57.998Z,1.96
2022-12-28T14:46:24.262Z,2.13
2022-12-28T14:48:50.561Z,2.26
2022-12-28T14:51:17.520Z,2.21
2022-12-28T14:53:44.091Z,2.21
2022-12-28T14:56:10.391Z,2.32
2022-12-28T14:58:36.694Z,2.30
2022-12-28T15:01:03.011Z,2.41
2022-12-28T15:03:29.485Z,2.08
2022-12-28T15:05:55.821Z,2.29
2022-12-28T15:08:22.097Z,2.19
2022-12-28T15:10:48.359Z,2.30
2022-12-28T15:13:14.622Z,2.07
2022-12-28T15:15:40.915Z,2.38
2022-12-28T15:18:07.201Z,2.07
2022-12-28T15:20:33.517Z,2.27
2022-12-28T15:22:59.779Z,2.26
2022-12-28T15:25:26.075Z,2.12
2022-12-28T15:27:52.361Z,2.04
2022-12-28T15:30:20.566Z,2.15
2022-12-28T15:32:50.559Z,2.28
2022-12-28T15:35:16.800Z,2.16
2022-12-28T15:37:43.078Z,2.13
2022-12-28T15:40:09.362Z,2.07
2022-12-28T15:42:40.376Z,2.33
2022-12-28T15:45:07.169Z,2.14
2022-12-28T15:47:33.411Z,2.44
2022-12-28T15:49:59.650Z,2.25
2022-12-28T15:52:25.907Z,2.28
2022-12-28T15:54:52.163Z,2.34
2022-12-28T15:57:18.450Z,2.37
2022-12-28T15:59:44.696Z,2.24
2022-12-28T16:02:11.100Z,2.09
2022-12-28T16:04:37.438Z,2.08
2022-12-28T16:07:03.707Z,2.08
2022-12-28T16:09:29.953Z,2.16
2022-12-28T16:11:56.218Z,2.05
2022-12-28T16:14:22.479Z,2.27
2022-12-28T16:16:48.757Z,2.15
2022-12-28T16:19:15.245Z,2.16
2022-12-28T16:21:41.512Z,2.28
2022-12-28T16:24:07.764Z,2.23
2022-12-28T16:26:34.019Z,2.15
2022-12-28T16:29:00.268Z,2.46
2022-12-28T16:31:26.530Z,2.24
2022-12-28T16:33:52.887Z,2.22
2022-12-28T16:36:19.153Z,2.33
2022-12-28T16:38:45.391Z,2.49
2022-12-28T16:41:11.651Z,2.24
2022-12-28T16:43:37.994Z,2.34
2022-12-28T16:46:04.345Z,2.21
2022-12-28T16:48:30.728Z,2.27
2022-12-28T16:50:56.975Z,2.27
2022-12-28T16:53:24.876Z,2.32
2022-12-28T16:55:51.321Z,2.41
2022-12-28T16:58:17.576Z,2.40
2022-12-28T17:00:43.847Z,2.43
2022-12-28T17:03:10.213Z,2.28
2022-12-28T17:05:36.500Z,2.50
2022-12-28T17:08:02.764Z,2.43
2022-12-28T17:10:29.019Z,2.23
2022-12-28T17:12:55.291Z,2.27
2022-12-28T17:15:21.635Z,2.37
2022-12-28T17:17:47.869Z,2.56
2022-12-28T17:20:14.125Z,2.34
2022-12-28T17:22:40.404Z,2.35
2022-12-28T17:25:06.646Z,2.27
2022-12-28T17:27:32.883Z,2.31
2022-12-28T17:29:59.155Z,2.37
2022-12-28T17:32:25.414Z,2.29
2022-12-28T17:34:51.675Z,2.22
2022-12-28T17:37:18.036Z,2.38
2022-12-28T17:39:44.299Z,2.31
2022-12-28T17:42:10.553Z,2.26
2022-12-28T17:44:36.821Z,2.49
2022-12-28T17:47:03.095Z,2.31
2022-12-28T17:49:29.347Z,2.60
2022-12-28T17:51:55.606Z,2.33
2022-12-28T17:54:21.881Z,2.17
2022-12-28T17:56:48.119Z,2.31
2022-12-28T17:59:14.385Z,2.12
2022-12-28T18:01:40.769Z,2.15
2022-12-28T18:04:07.090Z,2.15
2022-12-28T18:06:33.333Z,2.13
2022-12-28T18:08:59.604Z,2.20
2022-12-28T18:11:25.869Z,2.08
2022-12-28T18:13:52.209Z,2.15
2022-12-28T18:16:18.477Z,2.08
2022-12-28T18:18:44.729Z,2.11
2022-12-28T18:21:11.871Z,1.99
2022-12-28T18:23:40.302Z,2.45
2022-12-28T18:26:06.539Z,2.93
2022-12-28T18:28:32.795Z,4.93
2022-12-28T18:31:01.990Z,12.08
2022-12-28T18:33:28.454Z,7.73
2022-12-28T18:35:54.718Z,5.11
2022-12-28T18:38:20.987Z,5.46
2022-12-28T18:40:47.230Z,3.42
2022-12-28T18:43:13.460Z,2.65
2022-12-28T18:45:39.730Z,2.23
2022-12-28T18:48:05.994Z,2.39
2022-12-28T18:50:32.236Z,2.34
2022-12-28T18:52:59.405Z,2.09
2022-12-28T18:55:25.667Z,2.14
2022-12-28T18:57:51.929Z,2.15
2022-12-28T19:00:18.191Z,2.14
2022-12-28T19:02:44.542Z,2.34
2022-12-28T19:05:10.927Z,2.34
2022-12-28T19:07:37.178Z,2.47
2022-12-28T19:10:09.882Z,2.21
2022-12-28T19:12:38.566Z,2.28
2022-12-28T19:15:04.803Z,2.28
2022-12-28T19:17:31.041Z,2.10
2022-12-28T19:19:57.289Z,2.22
2022-12-28T19:22:23.530Z,2.30
2022-12-28T19:24:49.784Z,2.20
2022-12-28T19:27:16.030Z,2.18
2022-12-28T19:29:42.288Z,2.10
2022-12-28T19:32:08.556Z,2.27
2022-12-28T19:34:34.806Z,2.17
2022-12-28T19:37:01.053Z,2.08
2022-12-28T19:39:27.319Z,2.32
2022-12-28T19:41:53.592Z,2.24
2022-12-28T19:44:19.820Z,2.19
2022-12-28T19:46:46.126Z,2.28
2022-12-28T19:49:12.416Z,2.26
2022-12-28T19:51:38.716Z,2.32
2022-12-28T19:54:04.971Z,2.28
2022-12-28T19:56:31.216Z,2.15
2022-12-28T19:59:04.933Z,2.20
2022-12-28T20:01:32.185Z,2.13
2022-12-28T20:03:58.605Z,2.19
2022-12-28T20:06:24.935Z,2.33
2022-12-28T20:08:51.168Z,2.43
2022-12-28T20:11:17.413Z,2.19
2022-12-28T20:13:44.151Z,2.07
2022-12-28T20:16:10.429Z,2.17
2022-12-28T20:18:36.704Z,2.28
2022-12-28T20:21:20.118Z,2.17
2022-12-28T20:23:46.918Z,2.26
2022-12-28T20:26:13.171Z,2.18
2022-12-28T20:28:39.514Z,2.09
2022-12-28T20:31:05.780Z,2.02
2022-12-28T20:33:32.060Z,2.09
2022-12-28T20:35:58.321Z,1.96
2022-12-28T20:38:24.574Z,2.15
2022-12-28T20:40:50.819Z,2.37
2022-12-28T20:43:17.087Z,2.01
2022-12-28T20:45:43.369Z,1.99
2022-12-28T20:48:09.618Z,1.96
2022-12-28T20:50:35.897Z,1.98
2022-12-28T20:53:02.148Z,2.16
2022-12-28T20:55:28.501Z,2.00
2022-12-28T20:57:54.741Z,2.04
2022-12-28T21:00:20.979Z,2.13
2022-12-28T21:02:47.226Z,2.12
2022-12-28T21:05:13.487Z,2.08
2022-12-28T21:07:39.738Z,2.09
2022-12-28T21:10:05.973Z,2.20
2022-12-28T21:12:32.209Z,2.28
2022-12-28T21:14:58.472Z,2.09
2022-12-28T21:17:24.735Z,2.21
2022-12-28T21:19:51.000Z,2.29
2022-12-28T21:22:17.252Z,2.05
2022-12-28T21:24:43.511Z,2.43
2022-12-28T21:27:09.768Z,2.21
2022-12-28T21:29:36.009Z,2.26
2022-12-28T21:32:02.304Z,2.32
2022-12-28T21:34:28.615Z,2.76
2022-12-28T21:36:54.856Z,2.61
2022-12-28T21:39:21.120Z,2.74
2022-12-28T21:41:47.390Z,2.82
2022-12-28T21:44:13.662Z,2.61
2022-12-28T21:46:39.908Z,2.82
2022-12-28T21:49:06.176Z,3.23
2022-12-28T21:51:32.455Z,3.35
2022-12-28T21:53:58.737Z,2.90
2022-12-28T21:56:24.982Z,2.59
2022-12-28T21:58:51.249Z,2.44
2022-12-28T22:01:17.677Z,2.15
2022-12-28T22:03:44.089Z,2.19
2022-12-28T22:06:10.352Z,2.24
2022-12-28T22:08:36.588Z,2.12
2022-12-28T22:11:02.831Z,2.22
2022-12-28T22:13:29.092Z,2.04
2022-12-28T22:15:55.356Z,2.20
2022-12-28T22:18:44.945Z,2.03
2022-12-28T22:21:07.831Z,2.06
2022-12-28T22:23:34.940Z,2.21
2022-12-28T22:26:01.475Z,2.13
2022-12-28T22:28:27.723Z,2.30
2022-12-28T22:30:53.969Z,2.16
2022-12-28T22:33:20.240Z,2.08
2022-12-28T22:35:46.507Z,2.16
2022-12-28T22:38:12.764Z,2.11
2022-12-28T22:40:39.019Z,2.21
2022-12-28T22:43:05.299Z,2.29
2022-12-28T22:45:31.544Z,2.31
2022-12-28T22:47:57.803Z,2.26
2022-12-28T22:50:24.149Z,2.42
2022-12-28T22:52:50.381Z,2.50
2022-12-28T22:55:16.634Z,2.77
2022-12-28T22:57:42.889Z,2.88
2022-12-28T23:00:09.145Z,2.79
2022-12-28T23:02:35.720Z,2.77
2022-12-28T23:05:02.173Z,2.93
2022-12-28T23:07:28.417Z,2.83
2022-12-28T23:09:54.684Z,2.81
2022-12-28T23:12:20.947Z,2.91
2022-12-28T23:14:47.212Z,3.10
2022-12-28T23:17:13.542Z,3.12
2022-12-28T23:19:39.821Z,2.88
2022-12-28T23:22:06.082Z,3.17
2022-12-28T23:24:32.340Z,2.93
2022-12-28T23:26:58.576Z,3.33
2022-12-28T23:29:30.566Z,3.26
2022-12-28T23:31:57.081Z,3.10
2022-12-28T23:34:23.317Z,3.41
2022-12-28T23:36:49.557Z,3.56
2022-12-28T23:39:15.794Z,3.42
2022-12-28T23:41:42.038Z,3.48
2022-12-28T23:44:08.302Z,3.53
2022-12-28T23:46:34.617Z,3.49
2022-12-28T23:49:00.904Z,3.59
2022-12-28T23:51:27.167Z,3.64
2022-12-28T23:53:53.408Z,3.41
2022-12-28T23:56:19.667Z,3.85
2022-12-28T23:58:45.905Z,3.57
